createdAt,value
2018-06-08T14:22:13.300Z,27.80
2018-06-08T14:26:16.932Z,27.40
2018-06-08T14:30:20.628Z,27.20
2018-06-08T14:34:24.291Z,27.00
2018-06-08T14:38:27.971Z,26.90
2018-06-08T14:42:31.624Z,26.90
2018-06-08T14:46:35.297Z,26.80
2018-06-08T14:50:39.034Z,26.70
2018-06-08T14:54:43.107Z,26.60
2018-06-08T14:58:46.801Z,26.60
2018-06-08T15:02:50.493Z,26.60
2018-06-08T15:06:54.164Z,26.60
2018-06-08T15:10:57.831Z,26.50
2018-06-08T15:19:04.850Z,26.40
2018-06-08T15:23:08.524Z,26.30
2018-06-08T15:27:12.145Z,26.20
2018-06-08T15:31:15.817Z,26.20
2018-06-08T15:35:19.477Z,26.10
2018-06-08T15:39:23.143Z,26.10
2018-06-08T15:43:26.842Z,26.10
2018-06-08T15:47:30.573Z,26.10
2018-06-08T15:51:34.195Z,26.20
2018-06-08T15:55:37.893Z,26.20
2018-06-08T15:59:41.544Z,26.40
2018-06-08T16:03:45.228Z,26.50
2018-06-08T16:07:48.957Z,26.60
2018-06-08T16:11:52.593Z,26.60
2018-06-08T16:15:56.253Z,26.70
2018-06-08T16:19:59.925Z,26.70
2018-06-08T16:24:03.575Z,26.80
2018-06-08T16:28:07.238Z,26.90
2018-06-08T16:32:10.858Z,26.90
2018-06-08T16:36:14.602Z,26.80
2018-06-08T16:40:18.267Z,26.90
2018-06-08T16:44:21.990Z,26.80
2018-06-08T16:48:25.681Z,26.80
2018-06-08T16:52:29.635Z,26.80
2018-06-08T16:56:33.314Z,26.80
2018-06-08T17:00:37.088Z,26.80
2018-06-08T17:04:40.755Z,26.80
2018-06-08T17:08:44.472Z,26.80
2018-06-08T17:12:48.079Z,26.80
2018-06-08T17:16:51.745Z,26.80
2018-06-08T17:20:55.400Z,26.80
2018-06-08T17:24:59.057Z,26.80
2018-06-08T17:29:02.701Z,26.80
2018-06-08T17:33:06.368Z,26.70
2018-06-08T17:37:10.030Z,26.70
2018-06-08T17:41:13.679Z,26.70
2018-06-08T17:45:17.360Z,26.80
2018-06-08T17:49:21.002Z,26.80
2018-06-08T17:53:24.659Z,26.80
2018-06-08T17:57:28.315Z,26.80
2018-06-08T18:01:31.976Z,26.80
2018-06-08T18:05:35.659Z,26.80
2018-06-08T18:09:39.350Z,26.80
2018-06-08T18:13:43.053Z,26.70
2018-06-08T18:17:46.789Z,26.70
2018-06-08T18:21:50.471Z,26.60
2018-06-08T18:25:54.181Z,26.60
2018-06-08T18:29:57.838Z,26.60
2018-06-08T18:34:01.520Z,26.50
2018-06-08T18:38:05.397Z,26.50
2018-06-08T18:42:09.055Z,26.40
2018-06-08T18:46:12.741Z,26.40
2018-06-08T18:50:16.375Z,26.30
2018-06-08T18:54:20.069Z,26.20
2018-06-08T18:58:23.755Z,26.20
2018-06-08T19:02:27.424Z,26.10
2018-06-08T19:06:31.133Z,26.00
2018-06-08T19:10:34.858Z,25.90
2018-06-08T19:14:38.705Z,25.90
2018-06-08T19:18:42.366Z,25.80
2018-06-08T19:22:46.042Z,25.70
2018-06-08T19:26:49.728Z,25.60
2018-06-08T19:30:53.390Z,25.50
2018-06-08T19:34:57.068Z,25.40
2018-06-08T19:39:00.753Z,25.30
2018-06-08T19:43:04.447Z,25.20
2018-06-08T19:47:08.135Z,25.00
2018-06-08T19:51:11.788Z,25.00
2018-06-08T19:55:15.462Z,24.90
2018-06-08T19:59:19.133Z,24.80
2018-06-08T20:03:22.792Z,24.80
2018-06-08T20:07:26.500Z,24.70
2018-06-08T20:11:30.156Z,24.60
2018-06-08T20:15:33.837Z,24.50
2018-06-08T20:19:37.522Z,24.40
2018-06-08T20:23:41.202Z,24.30
2018-06-08T20:27:44.876Z,24.30
2018-06-08T20:31:48.504Z,24.20
2018-06-08T20:35:52.165Z,24.10
2018-06-08T20:39:55.919Z,24.10
2018-06-08T20:43:59.600Z,24.00
2018-06-08T20:48:03.413Z,24.00
2018-06-08T20:52:07.059Z,24.00
2018-06-08T20:56:10.782Z,23.80
2018-06-08T21:00:14.454Z,23.80
2018-06-08T21:04:18.128Z,23.70
2018-06-08T21:08:21.832Z,23.70
2018-06-08T21:12:25.446Z,23.60
2018-06-08T21:16:29.109Z,23.50
2018-06-08T21:20:32.898Z,23.50
2018-06-08T21:24:36.555Z,23.50
2018-06-08T21:28:40.318Z,23.40
2018-06-08T21:32:43.923Z,23.30
2018-06-08T21:36:47.593Z,23.30
2018-06-08T21:40:51.266Z,23.20
2018-06-08T21:44:54.939Z,23.20
2018-06-08T21:48:58.660Z,23.20
2018-06-08T21:53:02.279Z,23.10
2018-06-08T21:57:06.089Z,23.10
2018-06-08T22:01:10.110Z,23.00
2018-06-08T22:05:13.804Z,23.00
2018-06-08T22:09:18.607Z,23.00
2018-06-08T22:13:22.232Z,22.90
2018-06-08T22:17:25.906Z,22.90
2018-06-08T22:21:29.604Z,22.80
2018-06-08T22:25:33.280Z,22.80
2018-06-08T22:29:36.931Z,22.70
2018-06-08T22:33:40.619Z,22.70
2018-06-08T22:37:44.320Z,22.60
2018-06-08T22:41:47.987Z,22.60
2018-06-08T22:45:51.748Z,22.50
2018-06-08T22:49:55.397Z,22.50
2018-06-08T22:53:59.036Z,22.40
2018-06-08T22:58:02.972Z,22.40
2018-06-08T23:02:06.683Z,22.40
2018-06-08T23:06:10.391Z,22.40
2018-06-08T23:10:14.064Z,22.30
2018-06-08T23:14:17.678Z,22.20
2018-06-08T23:18:21.334Z,22.20
2018-06-08T23:22:24.990Z,22.20
2018-06-08T23:30:32.000Z,22.10
2018-06-08T23:34:35.627Z,22.00
2018-06-08T23:38:39.300Z,22.00
2018-06-08T23:42:42.947Z,21.90
2018-06-08T23:46:46.598Z,21.90
2018-06-08T23:50:50.269Z,21.80
2018-06-08T23:54:53.879Z,21.80
2018-06-08T23:58:57.539Z,21.70
